Emilio Lamarca, Argentina
Current Conditions -  °F | °C
As of 12:00 PM on Friday 31 Oct 2014 (Local Time) from SAZN Reporting Station
Clear Clear  
Wind Chill: 14°   Ceiling: Unl
Heat Index: 14°   Visibility: 6mi
Dew Point: -3°   Wind: 6mph
Humidity: 31%   Direction: 230°SW
Pressure: 30.15"   Gusts: NA
Location:  40.23°S, 62.59°W
Report Text: SAZN 311500Z 23005KT CAVOK 14/M03 Q1021
Loading
Personal Weather Stations






























Interactive Weather Map
Tropical Storm Tracking
New forecast layout! Learn more

10-Day Weather Forecast

Advertisements
Track Severe Weather on mobile